オスロ の空港の天気 - METARとTAF

オスロ空港 ( ENGM / OSL ) - ノルウェー アーケシュフース県オスロ
飛行場実況気象(Metar)
観測時間02/17 15:50 CET (02/17 14:50 UTC)
風向・風速南南東 3m/s
視程10km以上
天気現象
全天の8割程度の雲 雲底高度 400m
気温1℃
湿度80%
気圧1017hPa
METARENGM 171450Z 16006KT 130V190 9999 BKN013 01/M02 Q1017 TEMPO BKN018
過去の天気等 Google飛行場航空写真 Wunderground天気予報

過去48時間のMETAR

飛行場予報(TAF)
発表時間: -
17日13時 CET ~ 17日18時 CET に一時的に
全天の8割程度の雲 雲底高度 370m
17日18時 CET ~ 17日20時 CET に徐々に
風向・風速南 6m/s
視程4000m
天気現象弱い霧雨雨 もや
全天を覆う雲 雲底高度 240m
17日19時 CET ~ 18日13時 CET に一時的に
視程1200m
天気現象霧雨雨 もや
全天を覆う雲 雲底高度 60m
COR ENGM 1712/1812 02005KT 8000 BKN018
TEMPO 1712/1717 BKN012
BECMG 1717/1719 17012KT 4000 -DZRA BR OVC008
TEMPO 1718/1812 1200 DZRA BR OVC002